createdAt,value
2023-01-27T00:00:25.320Z,4.40
2023-01-27T00:03:27.098Z,4.40
2023-01-27T00:06:28.888Z,4.80
2023-01-27T00:09:30.595Z,4.30
2023-01-27T00:12:50.894Z,4.30
2023-01-27T00:15:53.131Z,4.30
2023-01-27T00:18:54.899Z,4.20
2023-01-27T00:22:15.121Z,4.30
2023-01-27T00:25:17.419Z,4.30
2023-01-27T00:28:22.887Z,4.30
2023-01-27T00:31:43.553Z,4.30
2023-01-27T00:34:45.397Z,4.30
2023-01-27T00:37:47.391Z,4.20
2023-01-27T00:41:09.057Z,4.20
2023-01-27T00:44:13.169Z,4.20
2023-01-27T00:47:15.417Z,4.20
2023-01-27T00:50:17.675Z,4.20
2023-01-27T00:53:19.529Z,4.20
2023-01-27T00:56:21.250Z,4.20
2023-01-27T00:59:23.245Z,4.10
2023-01-27T01:02:25.186Z,4.20
2023-01-27T01:05:26.931Z,4.10
2023-01-27T01:08:30.470Z,4.20
2023-01-27T01:11:32.258Z,4.00
2023-01-27T01:14:33.978Z,4.10
2023-01-27T01:17:35.704Z,4.10
2023-01-27T01:20:39.853Z,4.00
2023-01-27T01:23:43.358Z,4.00
2023-01-27T01:26:45.089Z,4.00
2023-01-27T01:29:46.955Z,3.90
2023-01-27T01:32:48.672Z,3.80
2023-01-27T01:35:51.588Z,3.70
2023-01-27T01:38:57.081Z,3.70
2023-01-27T01:41:59.623Z,3.70
2023-01-27T01:45:30.390Z,3.70
2023-01-27T01:48:44.340Z,3.70
2023-01-27T01:51:53.256Z,3.80
2023-01-27T01:54:56.881Z,3.70
2023-01-27T01:58:01.650Z,3.70
2023-01-27T02:01:05.699Z,3.70
2023-01-27T02:04:13.988Z,3.70
2023-01-27T02:07:22.219Z,3.70
2023-01-27T02:10:27.233Z,3.60
2023-01-27T02:13:29.032Z,3.70
2023-01-27T02:16:32.765Z,3.70
2023-01-27T02:19:34.495Z,3.70
2023-01-27T02:22:46.969Z,3.70
2023-01-27T02:26:03.838Z,3.70
2023-01-27T02:29:09.673Z,3.70
2023-01-27T02:32:25.792Z,3.70
2023-01-27T02:35:37.972Z,3.60
2023-01-27T02:38:53.337Z,3.60
2023-01-27T02:41:57.586Z,3.70
2023-01-27T02:45:01.035Z,3.70
2023-01-27T02:48:02.837Z,3.80
2023-01-27T02:51:05.032Z,3.80
2023-01-27T02:54:09.288Z,3.80
2023-01-27T02:57:11.011Z,3.70
2023-01-27T03:00:26.118Z,3.80
2023-01-27T03:03:29.008Z,3.80
2023-01-27T03:06:30.714Z,3.70
2023-01-27T03:09:33.238Z,3.80
2023-01-27T03:12:36.290Z,3.70
2023-01-27T03:15:56.603Z,3.80
2023-01-27T03:18:58.378Z,3.70
2023-01-27T03:22:01.862Z,3.70
2023-01-27T03:25:05.919Z,3.80
2023-01-27T03:28:07.678Z,3.70
2023-01-27T03:31:20.692Z,3.80
2023-01-27T03:34:30.871Z,3.80
2023-01-27T03:37:58.665Z,3.80
2023-01-27T03:41:22.575Z,3.70
2023-01-27T03:44:43.060Z,3.70
2023-01-27T03:47:44.837Z,3.70
2023-01-27T03:50:53.175Z,3.70
2023-01-27T03:53:55.007Z,3.80
2023-01-27T03:56:56.719Z,3.80
2023-01-27T03:59:58.462Z,3.80
2023-01-27T04:03:18.972Z,3.70
2023-01-27T04:06:45.053Z,3.70
2023-01-27T04:09:46.793Z,3.70
2023-01-27T04:12:48.802Z,3.70
2023-01-27T04:15:54.765Z,3.80
2023-01-27T04:18:57.639Z,3.80
2023-01-27T04:22:00.934Z,3.80
2023-01-27T04:25:02.644Z,3.80
2023-01-27T04:28:04.433Z,3.70
2023-01-27T04:31:06.225Z,3.80
2023-01-27T04:34:10.128Z,3.80
2023-01-27T04:37:11.880Z,3.70
2023-01-27T04:40:13.832Z,3.80
2023-01-27T04:43:16.487Z,3.80
2023-01-27T04:46:22.570Z,3.80
2023-01-27T04:49:26.641Z,3.80
2023-01-27T04:52:28.431Z,3.80
2023-01-27T04:55:30.210Z,3.90
2023-01-27T04:58:32.067Z,3.90
2023-01-27T05:01:34.085Z,3.90
2023-01-27T05:04:35.841Z,3.90
2023-01-27T05:07:39.032Z,3.90
2023-01-27T05:10:44.523Z,4.00
2023-01-27T05:13:46.279Z,3.90
2023-01-27T05:16:48.055Z,4.00
2023-01-27T05:19:49.793Z,3.90
2023-01-27T05:22:51.886Z,3.90
2023-01-27T05:25:53.584Z,3.90
2023-01-27T05:28:57.549Z,3.90
2023-01-27T05:31:59.270Z,3.90
2023-01-27T05:35:00.973Z,4.00
2023-01-27T05:38:02.903Z,4.00
2023-01-27T05:41:07.327Z,3.90
2023-01-27T05:44:12.005Z,3.90
2023-01-27T05:47:13.688Z,3.90
2023-01-27T05:50:15.782Z,3.80
2023-01-27T05:53:18.563Z,3.90
2023-01-27T05:56:20.342Z,3.90
2023-01-27T05:59:22.031Z,4.00
2023-01-27T06:02:23.762Z,3.90
2023-01-27T06:05:25.491Z,4.00
2023-01-27T06:08:27.676Z,4.10
2023-01-27T06:11:29.578Z,4.00
2023-01-27T06:14:31.254Z,4.00
2023-01-27T06:17:32.959Z,4.00
2023-01-27T06:20:34.684Z,4.00
2023-01-27T06:23:37.076Z,4.00
2023-01-27T06:26:38.789Z,4.10
2023-01-27T06:29:40.454Z,4.10
2023-01-27T06:32:42.241Z,4.10
2023-01-27T06:35:44.139Z,4.00
2023-01-27T06:38:49.403Z,4.10
2023-01-27T06:41:51.144Z,4.00
2023-01-27T06:44:52.872Z,4.00
2023-01-27T06:48:01.779Z,4.10
2023-01-27T06:51:03.701Z,4.10
2023-01-27T06:54:05.439Z,4.10
2023-01-27T06:57:09.701Z,4.00
2023-01-27T07:00:12.327Z,4.10
2023-01-27T07:06:16.104Z,4.10
2023-01-27T07:09:17.985Z,4.10
2023-01-27T07:12:19.710Z,4.10
2023-01-27T07:15:21.422Z,4.10
2023-01-27T07:18:23.884Z,4.10
2023-01-27T07:21:26.095Z,4.10
2023-01-27T07:24:27.848Z,4.10
2023-01-27T07:27:29.763Z,4.10
2023-01-27T07:30:33.679Z,4.20
2023-01-27T07:33:35.518Z,4.20
2023-01-27T07:36:37.198Z,4.10
2023-01-27T07:39:39.367Z,4.10
2023-01-27T07:42:41.470Z,4.20
2023-01-27T07:45:43.231Z,4.20
2023-01-27T07:48:44.925Z,4.20
2023-01-27T07:51:46.705Z,4.20
2023-01-27T07:54:48.394Z,4.10
2023-01-27T07:57:53.546Z,4.10
2023-01-27T08:00:55.276Z,4.20
2023-01-27T08:03:57.213Z,4.20
2023-01-27T08:06:58.896Z,4.30
2023-01-27T08:10:01.060Z,4.30
2023-01-27T08:13:02.859Z,4.20
2023-01-27T08:16:07.021Z,4.30
2023-01-27T08:19:08.760Z,4.30
2023-01-27T08:22:10.447Z,4.30
2023-01-27T08:25:12.128Z,4.30
2023-01-27T08:28:13.853Z,4.40
2023-01-27T08:31:16.926Z,4.30
2023-01-27T08:34:18.755Z,4.40
2023-01-27T08:37:20.423Z,4.40
2023-01-27T08:40:22.183Z,4.40
2023-01-27T08:43:23.931Z,4.30
2023-01-27T08:46:25.851Z,4.40
2023-01-27T08:49:27.604Z,4.30
2023-01-27T08:52:30.755Z,4.40
2023-01-27T08:55:33.787Z,4.40
2023-01-27T08:58:36.445Z,4.40
2023-01-27T09:01:38.187Z,4.50
2023-01-27T09:04:43.763Z,4.50
2023-01-27T09:07:49.067Z,4.50
2023-01-27T09:10:50.808Z,4.50
2023-01-27T09:13:52.516Z,4.50
2023-01-27T09:16:54.223Z,4.60
2023-01-27T09:19:55.921Z,4.60
2023-01-27T09:22:57.899Z,4.60
2023-01-27T09:25:59.595Z,4.60
2023-01-27T09:29:01.284Z,4.60
2023-01-27T09:32:03.653Z,4.60
2023-01-27T09:35:06.051Z,4.60
2023-01-27T09:38:08.743Z,4.60
2023-01-27T09:41:31.899Z,4.70
2023-01-27T09:45:01.258Z,4.70
2023-01-27T09:48:19.303Z,4.80
2023-01-27T09:51:40.907Z,4.70
2023-01-27T09:54:56.560Z,4.80
2023-01-27T09:58:26.282Z,4.80
2023-01-27T10:01:55.136Z,4.70
2023-01-27T10:05:35.151Z,4.70
2023-01-27T10:08:51.764Z,4.70
2023-01-27T10:12:26.349Z,4.80
2023-01-27T10:15:39.475Z,4.80
2023-01-27T10:18:50.829Z,4.70
2023-01-27T10:21:59.615Z,4.80
2023-01-27T10:25:07.303Z,4.90
2023-01-27T10:28:23.556Z,5.00
2023-01-27T10:31:32.424Z,5.00
2023-01-27T10:34:57.411Z,4.90
2023-01-27T10:38:22.373Z,5.00
2023-01-27T10:41:54.168Z,5.00
2023-01-27T10:45:10.908Z,5.00
2023-01-27T10:48:48.197Z,5.00
2023-01-27T10:51:58.736Z,5.00
2023-01-27T10:55:22.494Z,5.10
2023-01-27T10:58:42.046Z,5.20
2023-01-27T11:01:50.084Z,5.10
2023-01-27T11:04:59.887Z,5.00
2023-01-27T11:08:18.671Z,5.00
2023-01-27T11:11:41.036Z,5.00
2023-01-27T11:14:49.895Z,5.00
2023-01-27T11:18:12.431Z,5.20
2023-01-27T11:21:21.652Z,5.30
2023-01-27T11:24:39.826Z,5.30
2023-01-27T11:28:17.398Z,5.40
2023-01-27T11:31:44.571Z,5.40
2023-01-27T11:34:49.954Z,5.30
2023-01-27T11:37:58.318Z,5.40
2023-01-27T11:41:05.375Z,5.50
2023-01-27T11:44:16.819Z,5.50
2023-01-27T11:47:26.043Z,5.50
2023-01-27T11:50:34.786Z,5.40
2023-01-27T11:53:40.130Z,5.30
2023-01-27T11:56:45.822Z,5.50
2023-01-27T11:59:51.324Z,6.10
2023-01-27T12:03:17.705Z,6.10
2023-01-27T12:06:36.664Z,6.10
2023-01-27T12:09:42.282Z,6.10
2023-01-27T12:12:44.761Z,5.90
2023-01-27T12:15:58.979Z,5.70
2023-01-27T12:19:05.413Z,5.70
2023-01-27T12:22:14.987Z,5.60
2023-01-27T12:25:27.822Z,5.60
2023-01-27T12:28:34.636Z,5.50
2023-01-27T12:31:46.664Z,5.40
2023-01-27T12:34:56.903Z,5.30
2023-01-27T12:38:22.118Z,5.30
2023-01-27T12:41:32.497Z,5.40
2023-01-27T12:44:42.743Z,5.20
2023-01-27T12:47:57.203Z,5.20
2023-01-27T12:51:16.383Z,5.20
2023-01-27T12:54:22.637Z,5.20
2023-01-27T12:57:33.301Z,5.20
2023-01-27T13:00:35.226Z,5.00
2023-01-27T13:03:40.632Z,5.10
2023-01-27T13:06:44.151Z,5.10
2023-01-27T13:10:03.362Z,5.10
2023-01-27T13:13:06.040Z,5.10
2023-01-27T13:16:27.450Z,5.00
2023-01-27T13:19:44.116Z,5.10
2023-01-27T13:22:48.927Z,5.10
2023-01-27T13:25:57.505Z,5.00
2023-01-27T13:29:04.865Z,5.10
2023-01-27T13:32:26.777Z,5.10
2023-01-27T13:35:37.236Z,5.10
2023-01-27T13:38:50.883Z,5.10
2023-01-27T13:42:16.047Z,5.20
2023-01-27T13:45:35.479Z,5.30
2023-01-27T13:49:15.591Z,5.40
2023-01-27T13:52:17.357Z,5.30
2023-01-27T13:55:31.710Z,5.20
2023-01-27T13:58:57.660Z,5.20
2023-01-27T14:02:30.657Z,5.20
2023-01-27T14:05:57.327Z,5.20
2023-01-27T14:09:06.026Z,5.30
2023-01-27T14:12:39.965Z,5.30
2023-01-27T14:15:54.742Z,5.40
2023-01-27T14:19:11.794Z,5.40
2023-01-27T14:22:21.266Z,5.40
2023-01-27T14:25:41.704Z,5.30
2023-01-27T14:29:04.483Z,5.30
2023-01-27T14:32:27.187Z,5.20
2023-01-27T14:35:31.321Z,5.20
2023-01-27T14:38:48.440Z,5.20
2023-01-27T14:42:02.615Z,5.20
2023-01-27T14:45:22.038Z,5.20
2023-01-27T14:48:45.873Z,5.10
2023-01-27T14:51:53.414Z,5.10
2023-01-27T14:55:15.544Z,5.10
2023-01-27T14:58:44.636Z,5.10
2023-01-27T15:01:54.689Z,5.20
2023-01-27T15:05:15.275Z,5.20
2023-01-27T15:08:21.869Z,5.20
2023-01-27T15:11:29.327Z,5.10
2023-01-27T15:14:57.629Z,5.10
2023-01-27T15:18:17.766Z,5.10
2023-01-27T15:21:38.252Z,5.00
2023-01-27T15:25:08.332Z,5.00
2023-01-27T15:28:15.878Z,5.00
2023-01-27T15:31:17.694Z,5.00
2023-01-27T15:34:23.334Z,4.80
2023-01-27T15:37:28.289Z,4.90
2023-01-27T15:40:30.004Z,4.90
2023-01-27T15:43:37.618Z,4.80
2023-01-27T15:46:49.925Z,4.80
2023-01-27T15:50:03.625Z,4.80
2023-01-27T15:53:15.838Z,4.90
2023-01-27T15:56:17.852Z,4.80
2023-01-27T15:59:24.999Z,4.80
2023-01-27T16:02:29.867Z,4.70
2023-01-27T16:05:44.859Z,4.60
2023-01-27T16:08:55.229Z,4.60
2023-01-27T16:12:26.893Z,4.70
2023-01-27T16:15:35.029Z,4.60
2023-01-27T16:19:04.854Z,4.60
2023-01-27T16:22:19.542Z,4.50
2023-01-27T16:25:38.790Z,4.50
2023-01-27T16:28:45.920Z,4.50
2023-01-27T16:31:54.359Z,4.50
2023-01-27T16:35:04.262Z,4.40
2023-01-27T16:38:37.973Z,4.60
2023-01-27T16:41:46.406Z,4.50
2023-01-27T16:44:51.321Z,4.50
2023-01-27T16:47:59.358Z,4.50
2023-01-27T16:51:28.199Z,4.50
2023-01-27T16:54:33.154Z,4.50
2023-01-27T16:57:41.934Z,4.50
2023-01-27T17:00:44.727Z,4.50
2023-01-27T17:03:47.274Z,4.40
2023-01-27T17:07:16.081Z,4.30
2023-01-27T17:10:32.986Z,4.30
2023-01-27T17:13:49.970Z,4.40
2023-01-27T17:16:51.756Z,4.30
2023-01-27T17:20:02.420Z,4.40
2023-01-27T17:23:05.344Z,4.40
2023-01-27T17:26:14.244Z,4.40
2023-01-27T17:29:19.493Z,4.40
2023-01-27T17:32:25.307Z,3.60
2023-01-27T17:35:30.504Z,4.40
2023-01-27T17:38:44.354Z,4.30
2023-01-27T17:41:46.007Z,4.40
2023-01-27T17:44:49.006Z,4.40
2023-01-27T17:47:51.039Z,4.30
2023-01-27T17:50:52.774Z,4.40
2023-01-27T17:53:55.311Z,4.40
2023-01-27T17:57:03.338Z,4.40
2023-01-27T18:00:09.621Z,4.40
2023-01-27T18:03:20.060Z,4.40
2023-01-27T18:06:24.735Z,4.40
2023-01-27T18:09:27.720Z,4.30
2023-01-27T18:12:35.825Z,4.30
2023-01-27T18:15:37.605Z,4.30
2023-01-27T18:18:39.519Z,4.30
2023-01-27T18:21:41.255Z,4.20
2023-01-27T18:24:54.980Z,4.30
2023-01-27T18:27:59.313Z,4.30
2023-01-27T18:31:01.502Z,4.30
2023-01-27T18:34:06.314Z,4.20
2023-01-27T18:37:36.039Z,4.20
2023-01-27T18:40:37.874Z,4.20
2023-01-27T18:43:39.551Z,4.30
2023-01-27T18:46:41.291Z,4.30
2023-01-27T18:49:54.147Z,4.30
2023-01-27T18:52:56.149Z,4.30
2023-01-27T18:55:58.987Z,4.30
2023-01-27T18:59:00.669Z,4.30
2023-01-27T19:02:04.053Z,4.30
2023-01-27T19:05:25.142Z,4.30
2023-01-27T19:08:26.975Z,4.70
2023-01-27T19:11:28.695Z,4.30
2023-01-27T19:14:30.399Z,4.20
2023-01-27T19:17:32.102Z,4.20
2023-01-27T19:20:33.783Z,4.30
2023-01-27T19:23:35.474Z,4.20
2023-01-27T19:26:37.165Z,4.20
2023-01-27T19:29:38.946Z,4.30
2023-01-27T19:32:40.635Z,4.20
2023-01-27T19:35:44.058Z,4.20
2023-01-27T19:38:46.001Z,4.20
2023-01-27T19:41:47.814Z,5.00
2023-01-27T19:44:49.530Z,4.20
2023-01-27T19:47:52.764Z,4.20
2023-01-27T19:50:54.476Z,4.20
2023-01-27T19:53:56.374Z,4.20
2023-01-27T19:56:58.053Z,4.20
2023-01-27T19:59:59.764Z,4.10
2023-01-27T20:03:02.020Z,4.10
2023-01-27T20:06:09.033Z,4.10
2023-01-27T20:09:10.905Z,4.10
2023-01-27T20:12:16.194Z,4.10
2023-01-27T20:15:18.407Z,4.10
2023-01-27T20:18:22.801Z,4.10
2023-01-27T20:21:25.940Z,4.00
2023-01-27T20:24:28.097Z,4.00
2023-01-27T20:27:30.535Z,4.10
2023-01-27T20:30:33.582Z,4.00
2023-01-27T20:33:35.296Z,4.00
2023-01-27T20:36:37.017Z,4.00
2023-01-27T20:39:38.693Z,3.90
2023-01-27T20:42:40.433Z,3.90
2023-01-27T20:45:42.182Z,3.90
2023-01-27T20:48:44.398Z,3.80
2023-01-27T20:51:46.095Z,3.90
2023-01-27T20:54:47.813Z,3.80
2023-01-27T20:57:49.599Z,3.90
2023-01-27T21:00:51.506Z,3.80
2023-01-27T21:03:53.292Z,3.90
2023-01-27T21:06:55.122Z,3.90
2023-01-27T21:09:56.827Z,3.80
2023-01-27T21:12:58.550Z,3.80
2023-01-27T21:16:01.641Z,3.70
2023-01-27T21:19:03.554Z,3.70
2023-01-27T21:22:05.284Z,3.60
2023-01-27T21:25:07.306Z,3.60
2023-01-27T21:28:09.060Z,3.60
2023-01-27T21:31:16.151Z,3.60
2023-01-27T21:34:17.978Z,3.60
2023-01-27T21:37:19.669Z,3.50
2023-01-27T21:40:21.336Z,3.50
2023-01-27T21:43:41.934Z,3.50
2023-01-27T21:46:43.632Z,3.50
2023-01-27T21:50:02.301Z,3.50
2023-01-27T21:53:11.653Z,3.50
2023-01-27T21:56:13.330Z,3.40
2023-01-27T21:59:15.165Z,3.50
2023-01-27T22:02:17.519Z,3.40
2023-01-27T22:05:19.266Z,3.30
2023-01-27T22:08:20.940Z,3.20
2023-01-27T22:11:22.660Z,3.20
2023-01-27T22:14:24.599Z,3.20
2023-01-27T22:17:26.555Z,3.20
2023-01-27T22:20:28.415Z,3.20
2023-01-27T22:23:30.297Z,3.20
2023-01-27T22:26:32.027Z,3.20
2023-01-27T22:29:33.727Z,3.20
2023-01-27T22:32:35.748Z,3.20
2023-01-27T22:35:37.495Z,3.10
2023-01-27T22:38:39.258Z,3.10
2023-01-27T22:41:40.959Z,2.50
2023-01-27T22:44:42.687Z,2.90
2023-01-27T22:47:44.407Z,2.80
2023-01-27T22:50:46.175Z,2.80
2023-01-27T22:53:47.892Z,3.00
2023-01-27T22:56:49.573Z,2.80
2023-01-27T22:59:51.261Z,2.80
2023-01-27T23:02:53.004Z,3.00
2023-01-27T23:05:54.741Z,2.90
2023-01-27T23:08:56.427Z,2.90
2023-01-27T23:11:58.110Z,2.90
2023-01-27T23:15:01.676Z,2.90
2023-01-27T23:18:11.118Z,2.90
2023-01-27T23:21:12.820Z,3.00
2023-01-27T23:24:15.335Z,2.90
2023-01-27T23:27:17.054Z,2.90
2023-01-27T23:30:19.741Z,3.00
2023-01-27T23:33:21.562Z,3.00
2023-01-27T23:36:23.274Z,2.90
2023-01-27T23:39:24.993Z,3.00
2023-01-27T23:42:26.726Z,3.10
2023-01-27T23:45:29.073Z,3.00
2023-01-27T23:48:30.773Z,3.00
2023-01-27T23:51:32.533Z,3.10
2023-01-27T23:54:34.244Z,3.00
2023-01-27T23:57:35.961Z,3.10
